sensor_id;sensor_type;location;lat;lon;timestamp;temperature;humidity
22147;DHT22;13074;48.298;14.424;2023-12-20T00:01:14;2.00;99.90
22147;DHT22;13074;48.298;14.424;2023-12-20T00:06:25;1.80;99.90
22147;DHT22;13074;48.298;14.424;2023-12-20T00:08:53;1.80;99.90
22147;DHT22;13074;48.298;14.424;2023-12-20T00:11:22;1.90;99.90
22147;DHT22;13074;48.298;14.424;2023-12-20T00:13:50;1.90;99.90
22147;DHT22;13074;48.298;14.424;2023-12-20T00:16:18;2.00;99.90
22147;DHT22;13074;48.298;14.424;2023-12-20T00:18:46;2.10;99.90
22147;DHT22;13074;48.298;14.424;2023-12-20T00:21:14;2.10;99.90
22147;DHT22;13074;48.298;14.424;2023-12-20T00:23:43;2.10;99.90
22147;DHT22;13074;48.298;14.424;2023-12-20T00:26:11;2.10;99.90
22147;DHT22;13074;48.298;14.424;2023-12-20T00:28:39;2.00;99.90
22147;DHT22;13074;48.298;14.424;2023-12-20T00:31:07;2.00;99.90
22147;DHT22;13074;48.298;14.424;2023-12-20T00:33:34;1.90;99.90
22147;DHT22;13074;48.298;14.424;2023-12-20T00:36:02;1.90;99.90
22147;DHT22;13074;48.298;14.424;2023-12-20T00:38:31;1.90;99.90
22147;DHT22;13074;48.298;14.424;2023-12-20T00:41:01;2.10;99.90
22147;DHT22;13074;48.298;14.424;2023-12-20T00:43:29;2.10;99.90
22147;DHT22;13074;48.298;14.424;2023-12-20T00:45:57;2.10;99.90
22147;DHT22;13074;48.298;14.424;2023-12-20T00:48:26;2.20;99.90
22147;DHT22;13074;48.298;14.424;2023-12-20T00:50:56;2.20;99.90
22147;DHT22;13074;48.298;14.424;2023-12-20T00:53:24;2.10;99.90
22147;DHT22;13074;48.298;14.424;2023-12-20T00:55:51;2.10;99.90
22147;DHT22;13074;48.298;14.424;2023-12-20T00:58:21;2.00;99.90
22147;DHT22;13074;48.298;14.424;2023-12-20T01:00:48;2.00;99.90
22147;DHT22;13074;48.298;14.424;2023-12-20T01:03:17;1.70;99.90
22147;DHT22;13074;48.298;14.424;2023-12-20T01:05:45;1.60;99.90
22147;DHT22;13074;48.298;14.424;2023-12-20T01:08:12;1.40;99.90
22147;DHT22;13074;48.298;14.424;2023-12-20T01:10:40;1.30;99.90
22147;DHT22;13074;48.298;14.424;2023-12-20T01:13:12;1.10;99.90
22147;DHT22;13074;48.298;14.424;2023-12-20T01:15:42;1.10;99.90
22147;DHT22;13074;48.298;14.424;2023-12-20T01:18:10;1.00;99.90
22147;DHT22;13074;48.298;14.424;2023-12-20T01:20:38;1.00;99.90
22147;DHT22;13074;48.298;14.424;2023-12-20T01:23:06;1.00;99.90
22147;DHT22;13074;48.298;14.424;2023-12-20T01:25:34;1.00;99.90
22147;DHT22;13074;48.298;14.424;2023-12-20T01:28:03;0.30;99.90
22147;DHT22;13074;48.298;14.424;2023-12-20T01:30:32;1.10;99.90
22147;DHT22;13074;48.298;14.424;2023-12-20T01:33:03;1.10;99.90
22147;DHT22;13074;48.298;14.424;2023-12-20T01:35:34;1.20;99.90
22147;DHT22;13074;48.298;14.424;2023-12-20T01:38:02;1.20;99.90
22147;DHT22;13074;48.298;14.424;2023-12-20T01:40:30;1.30;99.90
22147;DHT22;13074;48.298;14.424;2023-12-20T01:42:59;1.30;99.90
22147;DHT22;13074;48.298;14.424;2023-12-20T01:45:27;1.40;99.90
22147;DHT22;13074;48.298;14.424;2023-12-20T01:47:56;1.50;99.90
22147;DHT22;13074;48.298;14.424;2023-12-20T01:50:28;1.50;99.90
22147;DHT22;13074;48.298;14.424;2023-12-20T01:52:56;1.60;99.90
22147;DHT22;13074;48.298;14.424;2023-12-20T01:55:27;1.70;99.90
22147;DHT22;13074;48.298;14.424;2023-12-20T01:57:56;1.70;99.90
22147;DHT22;13074;48.298;14.424;2023-12-20T02:00:25;1.60;99.90
22147;DHT22;13074;48.298;14.424;2023-12-20T02:18:25;1.90;99.90
22147;DHT22;13074;48.298;14.424;2023-12-20T02:46:06;2.00;99.90
22147;DHT22;13074;48.298;14.424;2023-12-20T02:52:11;2.10;99.90
22147;DHT22;13074;48.298;14.424;2023-12-20T02:55:05;2.10;99.90
22147;DHT22;13074;48.298;14.424;2023-12-20T02:57:42;2.20;99.90
22147;DHT22;13074;48.298;14.424;2023-12-20T03:00:32;2.40;99.90
22147;DHT22;13074;48.298;14.424;2023-12-20T03:03:05;2.50;99.90
22147;DHT22;13074;48.298;14.424;2023-12-20T03:05:34;2.60;99.90
22147;DHT22;13074;48.298;14.424;2023-12-20T03:08:02;2.80;99.90
22147;DHT22;13074;48.298;14.424;2023-12-20T03:10:33;2.80;99.90
22147;DHT22;13074;48.298;14.424;2023-12-20T03:13:01;2.90;99.90
22147;DHT22;13074;48.298;14.424;2023-12-20T03:15:33;3.00;99.90
22147;DHT22;13074;48.298;14.424;2023-12-20T03:18:04;3.00;99.90
22147;DHT22;13074;48.298;14.424;2023-12-20T03:20:32;3.00;99.90
22147;DHT22;13074;48.298;14.424;2023-12-20T03:23:00;3.10;99.90
22147;DHT22;13074;48.298;14.424;2023-12-20T03:25:28;3.10;99.90
22147;DHT22;13074;48.298;14.424;2023-12-20T03:27:56;3.10;99.90
22147;DHT22;13074;48.298;14.424;2023-12-20T03:30:26;3.00;99.90
22147;DHT22;13074;48.298;14.424;2023-12-20T03:32:59;3.10;99.90
22147;DHT22;13074;48.298;14.424;2023-12-20T03:35:31;3.10;99.90
22147;DHT22;13074;48.298;14.424;2023-12-20T03:37:59;3.20;99.90
22147;DHT22;13074;48.298;14.424;2023-12-20T03:40:32;3.20;99.90
22147;DHT22;13074;48.298;14.424;2023-12-20T03:43:03;3.30;99.90
22147;DHT22;13074;48.298;14.424;2023-12-20T03:45:31;3.40;99.90
22147;DHT22;13074;48.298;14.424;2023-12-20T03:47:59;3.40;99.90
22147;DHT22;13074;48.298;14.424;2023-12-20T03:50:31;3.40;99.90
22147;DHT22;13074;48.298;14.424;2023-12-20T03:53:00;3.70;99.90
22147;DHT22;13074;48.298;14.424;2023-12-20T03:55:31;3.60;99.90
22147;DHT22;13074;48.298;14.424;2023-12-20T03:57:59;3.60;99.90
22147;DHT22;13074;48.298;14.424;2023-12-20T04:00:27;3.70;99.90
22147;DHT22;13074;48.298;14.424;2023-12-20T04:02:56;3.80;99.90
22147;DHT22;13074;48.298;14.424;2023-12-20T04:05:25;3.80;99.90
22147;DHT22;13074;48.298;14.424;2023-12-20T04:08:01;3.90;99.90
22147;DHT22;13074;48.298;14.424;2023-12-20T04:10:29;3.90;99.90
22147;DHT22;13074;48.298;14.424;2023-12-20T04:12:58;3.90;99.90
22147;DHT22;13074;48.298;14.424;2023-12-20T04:15:27;3.90;99.90
22147;DHT22;13074;48.298;14.424;2023-12-20T04:17:58;3.90;99.90
22147;DHT22;13074;48.298;14.424;2023-12-20T04:20:28;3.90;99.90
22147;DHT22;13074;48.298;14.424;2023-12-20T04:22:56;4.00;99.90
22147;DHT22;13074;48.298;14.424;2023-12-20T04:25:54;4.10;99.90
22147;DHT22;13074;48.298;14.424;2023-12-20T04:28:41;4.10;99.90
22147;DHT22;13074;48.298;14.424;2023-12-20T04:31:31;4.10;99.90
22147;DHT22;13074;48.298;14.424;2023-12-20T04:44:55;4.20;99.90
22147;DHT22;13074;48.298;14.424;2023-12-20T04:47:28;4.50;99.90
22147;DHT22;13074;48.298;14.424;2023-12-20T04:50:05;4.50;99.90
22147;DHT22;13074;48.298;14.424;2023-12-20T04:52:35;4.60;99.90
22147;DHT22;13074;48.298;14.424;2023-12-20T04:55:09;4.60;99.90
22147;DHT22;13074;48.298;14.424;2023-12-20T04:57:48;4.70;99.90
22147;DHT22;13074;48.298;14.424;2023-12-20T05:00:31;4.70;99.90
22147;DHT22;13074;48.298;14.424;2023-12-20T05:02:59;4.80;99.90
22147;DHT22;13074;48.298;14.424;2023-12-20T05:05:30;4.80;99.90
22147;DHT22;13074;48.298;14.424;2023-12-20T05:08:24;4.70;99.90
22147;DHT22;13074;48.298;14.424;2023-12-20T05:11:05;4.80;99.90
22147;DHT22;13074;48.298;14.424;2023-12-20T05:13:47;4.80;99.90
22147;DHT22;13074;48.298;14.424;2023-12-20T05:16:25;4.80;99.90
22147;DHT22;13074;48.298;14.424;2023-12-20T05:25:16;4.90;99.90
22147;DHT22;13074;48.298;14.424;2023-12-20T05:28:09;4.90;99.90
22147;DHT22;13074;48.298;14.424;2023-12-20T05:36:25;5.10;99.90
22147;DHT22;13074;48.298;14.424;2023-12-20T05:39:07;5.20;99.90
22147;DHT22;13074;48.298;14.424;2023-12-20T05:41:35;5.20;99.90
22147;DHT22;13074;48.298;14.424;2023-12-20T05:44:13;5.30;99.90
22147;DHT22;13074;48.298;14.424;2023-12-20T05:46:42;5.30;99.90
22147;DHT22;13074;48.298;14.424;2023-12-20T05:49:12;5.20;99.90
22147;DHT22;13074;48.298;14.424;2023-12-20T05:51:56;5.20;99.90
22147;DHT22;13074;48.298;14.424;2023-12-20T05:54:24;5.10;99.90
22147;DHT22;13074;48.298;14.424;2023-12-20T05:56:56;5.00;99.90
22147;DHT22;13074;48.298;14.424;2023-12-20T05:59:26;4.90;99.90
22147;DHT22;13074;48.298;14.424;2023-12-20T06:01:56;4.80;99.90
22147;DHT22;13074;48.298;14.424;2023-12-20T06:04:25;4.60;99.90
22147;DHT22;13074;48.298;14.424;2023-12-20T06:06:55;4.30;99.90
22147;DHT22;13074;48.298;14.424;2023-12-20T06:09:24;4.10;99.90
22147;DHT22;13074;48.298;14.424;2023-12-20T06:11:51;3.90;99.90
22147;DHT22;13074;48.298;14.424;2023-12-20T06:14:19;3.80;99.90
22147;DHT22;13074;48.298;14.424;2023-12-20T06:16:48;3.80;99.90
22147;DHT22;13074;48.298;14.424;2023-12-20T06:19:19;3.80;99.90
22147;DHT22;13074;48.298;14.424;2023-12-20T06:21:47;3.80;99.90
22147;DHT22;13074;48.298;14.424;2023-12-20T06:24:17;3.80;99.90
22147;DHT22;13074;48.298;14.424;2023-12-20T06:26:45;3.90;99.90
22147;DHT22;13074;48.298;14.424;2023-12-20T06:29:13;3.90;99.90
22147;DHT22;13074;48.298;14.424;2023-12-20T06:31:41;4.00;99.90
22147;DHT22;13074;48.298;14.424;2023-12-20T06:34:13;4.10;99.90
22147;DHT22;13074;48.298;14.424;2023-12-20T06:36:42;4.20;99.90
22147;DHT22;13074;48.298;14.424;2023-12-20T06:39:12;4.30;99.90
22147;DHT22;13074;48.298;14.424;2023-12-20T06:57:35;4.90;99.90
22147;DHT22;13074;48.298;14.424;2023-12-20T07:00:29;4.80;99.90
22147;DHT22;13074;48.298;14.424;2023-12-20T07:03:33;4.90;99.90
22147;DHT22;13074;48.298;14.424;2023-12-20T07:06:14;4.90;99.90
22147;DHT22;13074;48.298;14.424;2023-12-20T07:16:56;4.70;99.90
22147;DHT22;13074;48.298;14.424;2023-12-20T07:19:27;4.70;99.90
22147;DHT22;13074;48.298;14.424;2023-12-20T07:22:07;4.70;99.90
22147;DHT22;13074;48.298;14.424;2023-12-20T07:24:40;4.60;99.90
22147;DHT22;13074;48.298;14.424;2023-12-20T07:27:17;4.60;99.90
22147;DHT22;13074;48.298;14.424;2023-12-20T07:29:50;4.60;99.90
22147;DHT22;13074;48.298;14.424;2023-12-20T07:32:50;4.60;99.90
22147;DHT22;13074;48.298;14.424;2023-12-20T07:35:59;4.60;99.90
22147;DHT22;13074;48.298;14.424;2023-12-20T07:46:41;4.60;99.90
22147;DHT22;13074;48.298;14.424;2023-12-20T07:49:30;4.60;99.90
22147;DHT22;13074;48.298;14.424;2023-12-20T07:52:11;4.60;99.90
22147;DHT22;13074;48.298;14.424;2023-12-20T07:55:02;4.60;99.90
22147;DHT22;13074;48.298;14.424;2023-12-20T07:57:59;4.60;99.90
22147;DHT22;13074;48.298;14.424;2023-12-20T08:00:44;4.70;99.90
22147;DHT22;13074;48.298;14.424;2023-12-20T08:04:03;4.70;99.90
22147;DHT22;13074;48.298;14.424;2023-12-20T08:07:12;4.70;99.90
22147;DHT22;13074;48.298;14.424;2023-12-20T08:10:07;4.70;99.90
22147;DHT22;13074;48.298;14.424;2023-12-20T08:13:03;4.70;99.90
22147;DHT22;13074;48.298;14.424;2023-12-20T08:15:33;5.00;99.90
22147;DHT22;13074;48.298;14.424;2023-12-20T08:18:19;4.50;99.90
22147;DHT22;13074;48.298;14.424;2023-12-20T08:21:22;4.40;99.90
22147;DHT22;13074;48.298;14.424;2023-12-20T08:30:19;4.30;99.90
22147;DHT22;13074;48.298;14.424;2023-12-20T08:33:05;4.40;99.90
22147;DHT22;13074;48.298;14.424;2023-12-20T08:35:57;4.40;99.90
22147;DHT22;13074;48.298;14.424;2023-12-20T08:38:34;4.40;99.90
22147;DHT22;13074;48.298;14.424;2023-12-20T08:41:28;4.40;99.90
22147;DHT22;13074;48.298;14.424;2023-12-20T08:44:10;4.40;99.90
22147;DHT22;13074;48.298;14.424;2023-12-20T08:50:17;4.50;99.90
22147;DHT22;13074;48.298;14.424;2023-12-20T08:53:41;4.60;99.90
22147;DHT22;13074;48.298;14.424;2023-12-20T08:56:52;4.60;99.90
22147;DHT22;13074;48.298;14.424;2023-12-20T08:59:39;4.80;99.90
22147;DHT22;13074;48.298;14.424;2023-12-20T09:02:49;4.70;99.90
22147;DHT22;13074;48.298;14.424;2023-12-20T09:05:48;4.80;99.90
22147;DHT22;13074;48.298;14.424;2023-12-20T09:11:39;5.00;99.90
22147;DHT22;13074;48.298;14.424;2023-12-20T09:14:46;5.00;99.90
22147;DHT22;13074;48.298;14.424;2023-12-20T09:33:18;5.50;99.90
22147;DHT22;13074;48.298;14.424;2023-12-20T09:39:29;5.60;99.90
22147;DHT22;13074;48.298;14.424;2023-12-20T09:46:26;5.80;99.90
22147;DHT22;13074;48.298;14.424;2023-12-20T13:11:00;6.40;99.90
22147;DHT22;13074;48.298;14.424;2023-12-20T14:01:02;6.50;99.90
22147;DHT22;13074;48.298;14.424;2023-12-20T14:04:15;6.50;99.90
22147;DHT22;13074;48.298;14.424;2023-12-20T14:15:26;6.40;99.90
22147;DHT22;13074;48.298;14.424;2023-12-20T15:12:21;4.30;99.90
22147;DHT22;13074;48.298;14.424;2023-12-20T15:15:10;4.30;99.90
22147;DHT22;13074;48.298;14.424;2023-12-20T15:24:52;4.20;99.90
22147;DHT22;13074;48.298;14.424;2023-12-20T15:28:05;4.10;99.90
22147;DHT22;13074;48.298;14.424;2023-12-20T15:30:45;4.10;99.90
22147;DHT22;13074;48.298;14.424;2023-12-20T15:33:37;4.00;99.90
22147;DHT22;13074;48.298;14.424;2023-12-20T15:36:27;4.00;99.90
22147;DHT22;13074;48.298;14.424;2023-12-20T15:39:30;4.00;99.90
22147;DHT22;13074;48.298;14.424;2023-12-20T15:48:39;3.90;99.90
22147;DHT22;13074;48.298;14.424;2023-12-20T15:51:24;3.90;99.90
22147;DHT22;13074;48.298;14.424;2023-12-20T15:54:16;3.90;99.90
22147;DHT22;13074;48.298;14.424;2023-12-20T15:56:52;4.00;99.90
22147;DHT22;13074;48.298;14.424;2023-12-20T15:59:36;4.00;99.90
22147;DHT22;13074;48.298;14.424;2023-12-20T16:05:48;3.90;99.90
22147;DHT22;13074;48.298;14.424;2023-12-20T16:08:36;3.90;99.90
22147;DHT22;13074;48.298;14.424;2023-12-20T16:12:13;3.90;99.90
22147;DHT22;13074;48.298;14.424;2023-12-20T16:15:06;3.90;99.90
22147;DHT22;13074;48.298;14.424;2023-12-20T16:18:05;3.80;99.90
22147;DHT22;13074;48.298;14.424;2023-12-20T16:23:47;3.60;99.90
22147;DHT22;13074;48.298;14.424;2023-12-20T16:26:47;3.50;99.90
22147;DHT22;13074;48.298;14.424;2023-12-20T16:29:34;3.40;99.90
22147;DHT22;13074;48.298;14.424;2023-12-20T16:32:51;3.60;99.90
22147;DHT22;13074;48.298;14.424;2023-12-20T16:35:33;3.60;99.90
22147;DHT22;13074;48.298;14.424;2023-12-20T16:38:04;3.60;99.90
22147;DHT22;13074;48.298;14.424;2023-12-20T16:40:40;3.60;99.90
22147;DHT22;13074;48.298;14.424;2023-12-20T16:46:21;3.70;99.90
22147;DHT22;13074;48.298;14.424;2023-12-20T16:52:45;3.70;99.90
22147;DHT22;13074;48.298;14.424;2023-12-20T16:55:56;3.70;99.90
22147;DHT22;13074;48.298;14.424;2023-12-20T16:58:42;3.60;99.90
22147;DHT22;13074;48.298;14.424;2023-12-20T17:01:44;3.60;99.90
22147;DHT22;13074;48.298;14.424;2023-12-20T17:04:57;3.60;99.90
22147;DHT22;13074;48.298;14.424;2023-12-20T17:19:06;3.60;99.90
22147;DHT22;13074;48.298;14.424;2023-12-20T17:21:43;3.60;99.90
22147;DHT22;13074;48.298;14.424;2023-12-20T17:27:57;3.40;99.90
22147;DHT22;13074;48.298;14.424;2023-12-20T17:30:45;3.50;99.90
22147;DHT22;13074;48.298;14.424;2023-12-20T17:39:02;3.30;99.90
22147;DHT22;13074;48.298;14.424;2023-12-20T17:41:52;3.20;99.90
22147;DHT22;13074;48.298;14.424;2023-12-20T17:44:40;3.30;99.90
22147;DHT22;13074;48.298;14.424;2023-12-20T17:50:08;3.60;99.90
22147;DHT22;13074;48.298;14.424;2023-12-20T17:52:47;3.70;99.90
22147;DHT22;13074;48.298;14.424;2023-12-20T17:56:00;3.90;99.90
22147;DHT22;13074;48.298;14.424;2023-12-20T17:58:41;4.20;99.90
22147;DHT22;13074;48.298;14.424;2023-12-20T18:01:23;4.10;99.90
22147;DHT22;13074;48.298;14.424;2023-12-20T18:04:10;4.40;99.90
22147;DHT22;13074;48.298;14.424;2023-12-20T18:06:56;4.40;99.90
22147;DHT22;13074;48.298;14.424;2023-12-20T18:09:26;4.40;99.90
22147;DHT22;13074;48.298;14.424;2023-12-20T18:12:07;4.40;99.90
22147;DHT22;13074;48.298;14.424;2023-12-20T18:15:03;4.50;99.90
22147;DHT22;13074;48.298;14.424;2023-12-20T18:17:52;4.60;99.90
22147;DHT22;13074;48.298;14.424;2023-12-20T18:20:24;4.60;99.90
22147;DHT22;13074;48.298;14.424;2023-12-20T18:23:21;4.70;99.90
22147;DHT22;13074;48.298;14.424;2023-12-20T18:26:06;4.60;99.90
22147;DHT22;13074;48.298;14.424;2023-12-20T18:28:57;4.60;99.90
22147;DHT22;13074;48.298;14.424;2023-12-20T18:31:34;4.50;99.90
22147;DHT22;13074;48.298;14.424;2023-12-20T18:34:16;4.50;99.90
22147;DHT22;13074;48.298;14.424;2023-12-20T18:36:50;4.50;99.90
22147;DHT22;13074;48.298;14.424;2023-12-20T18:39:18;4.50;99.90
22147;DHT22;13074;48.298;14.424;2023-12-20T18:41:54;4.50;99.90
22147;DHT22;13074;48.298;14.424;2023-12-20T18:44:26;4.40;99.90
22147;DHT22;13074;48.298;14.424;2023-12-20T18:46:54;4.30;99.90
22147;DHT22;13074;48.298;14.424;2023-12-20T18:49:32;4.20;99.90
22147;DHT22;13074;48.298;14.424;2023-12-20T18:52:10;4.10;99.90
22147;DHT22;13074;48.298;14.424;2023-12-20T18:54:40;4.00;99.90
22147;DHT22;13074;48.298;14.424;2023-12-20T18:57:11;3.90;99.90
22147;DHT22;13074;48.298;14.424;2023-12-20T18:59:48;3.90;99.90
22147;DHT22;13074;48.298;14.424;2023-12-20T19:02:17;3.80;99.90
22147;DHT22;13074;48.298;14.424;2023-12-20T19:04:49;3.80;99.90
22147;DHT22;13074;48.298;14.424;2023-12-20T19:07:26;3.80;99.90
22147;DHT22;13074;48.298;14.424;2023-12-20T19:09:55;3.80;99.90
22147;DHT22;13074;48.298;14.424;2023-12-20T19:12:23;4.00;99.90
22147;DHT22;13074;48.298;14.424;2023-12-20T19:14:56;4.00;99.90
22147;DHT22;13074;48.298;14.424;2023-12-20T19:20:50;3.90;99.90
22147;DHT22;13074;48.298;14.424;2023-12-20T19:23:19;4.10;99.90
22147;DHT22;13074;48.298;14.424;2023-12-20T19:25:47;3.90;99.90
22147;DHT22;13074;48.298;14.424;2023-12-20T19:28:21;4.00;99.90
22147;DHT22;13074;48.298;14.424;2023-12-20T19:30:54;4.00;99.90
22147;DHT22;13074;48.298;14.424;2023-12-20T19:33:27;4.00;99.90
22147;DHT22;13074;48.298;14.424;2023-12-20T19:35:58;4.00;99.90
22147;DHT22;13074;48.298;14.424;2023-12-20T19:38:28;4.10;99.90
22147;DHT22;13074;48.298;14.424;2023-12-20T19:40:57;4.10;99.90
22147;DHT22;13074;48.298;14.424;2023-12-20T19:43:41;4.10;99.90
22147;DHT22;13074;48.298;14.424;2023-12-20T19:49:34;4.10;99.90
22147;DHT22;13074;48.298;14.424;2023-12-20T19:52:07;4.20;99.90
22147;DHT22;13074;48.298;14.424;2023-12-20T19:54:41;4.10;99.90
22147;DHT22;13074;48.298;14.424;2023-12-20T19:57:21;4.20;99.90
22147;DHT22;13074;48.298;14.424;2023-12-20T19:59:54;4.10;99.90
22147;DHT22;13074;48.298;14.424;2023-12-20T20:02:48;4.20;99.90
22147;DHT22;13074;48.298;14.424;2023-12-20T20:05:29;4.20;99.90
22147;DHT22;13074;48.298;14.424;2023-12-20T20:08:05;4.20;99.90
22147;DHT22;13074;48.298;14.424;2023-12-20T20:10:35;4.20;99.90
22147;DHT22;13074;48.298;14.424;2023-12-20T20:13:03;4.30;99.90
22147;DHT22;13074;48.298;14.424;2023-12-20T20:15:49;4.30;99.90
22147;DHT22;13074;48.298;14.424;2023-12-20T20:21:21;4.50;99.90
22147;DHT22;13074;48.298;14.424;2023-12-20T20:24:02;4.60;99.90
22147;DHT22;13074;48.298;14.424;2023-12-20T20:26:32;4.50;99.90
22147;DHT22;13074;48.298;14.424;2023-12-20T20:29:21;4.60;99.90
22147;DHT22;13074;48.298;14.424;2023-12-20T20:31:53;4.50;99.90
22147;DHT22;13074;48.298;14.424;2023-12-20T20:34:59;4.60;99.90
22147;DHT22;13074;48.298;14.424;2023-12-20T20:37:44;4.60;99.90
22147;DHT22;13074;48.298;14.424;2023-12-20T20:40:13;4.60;99.90
22147;DHT22;13074;48.298;14.424;2023-12-20T20:42:59;4.70;99.90
22147;DHT22;13074;48.298;14.424;2023-12-20T20:45:35;4.80;99.90
22147;DHT22;13074;48.298;14.424;2023-12-20T20:48:38;4.90;99.90
22147;DHT22;13074;48.298;14.424;2023-12-20T20:51:52;4.80;99.90
22147;DHT22;13074;48.298;14.424;2023-12-20T20:54:29;4.90;99.90
22147;DHT22;13074;48.298;14.424;2023-12-20T20:57:13;4.90;99.90
22147;DHT22;13074;48.298;14.424;2023-12-20T20:59:51;5.00;99.90
22147;DHT22;13074;48.298;14.424;2023-12-20T21:02:36;5.00;99.90
22147;DHT22;13074;48.298;14.424;2023-12-20T21:05:15;5.00;99.90
22147;DHT22;13074;48.298;14.424;2023-12-20T21:11:27;5.00;99.90
22147;DHT22;13074;48.298;14.424;2023-12-20T21:14:24;5.00;99.90
22147;DHT22;13074;48.298;14.424;2023-12-20T21:17:34;5.00;99.90
22147;DHT22;13074;48.298;14.424;2023-12-20T21:20:14;5.00;99.90
22147;DHT22;13074;48.298;14.424;2023-12-20T21:23:01;5.00;99.90
22147;DHT22;13074;48.298;14.424;2023-12-20T21:25:46;5.00;99.90
22147;DHT22;13074;48.298;14.424;2023-12-20T21:28:35;4.90;99.90
22147;DHT22;13074;48.298;14.424;2023-12-20T21:31:04;4.90;99.90
22147;DHT22;13074;48.298;14.424;2023-12-20T21:33:44;4.80;99.90
22147;DHT22;13074;48.298;14.424;2023-12-20T21:36:17;4.80;99.90
22147;DHT22;13074;48.298;14.424;2023-12-20T21:38:53;4.80;99.90
22147;DHT22;13074;48.298;14.424;2023-12-20T21:44:33;4.90;99.90
22147;DHT22;13074;48.298;14.424;2023-12-20T21:47:14;4.80;99.90
22147;DHT22;13074;48.298;14.424;2023-12-20T21:50:00;4.70;99.90
22147;DHT22;13074;48.298;14.424;2023-12-20T21:52:38;4.70;99.90
22147;DHT22;13074;48.298;14.424;2023-12-20T21:55:24;4.60;99.90
22147;DHT22;13074;48.298;14.424;2023-12-20T21:58:06;4.70;99.90
22147;DHT22;13074;48.298;14.424;2023-12-20T22:01:00;4.80;99.90
22147;DHT22;13074;48.298;14.424;2023-12-20T22:03:45;4.80;99.90
22147;DHT22;13074;48.298;14.424;2023-12-20T22:06:23;4.90;99.90
22147;DHT22;13074;48.298;14.424;2023-12-20T22:09:09;4.90;99.90
22147;DHT22;13074;48.298;14.424;2023-12-20T22:11:57;5.00;99.90
22147;DHT22;13074;48.298;14.424;2023-12-20T22:14:45;5.00;99.90
22147;DHT22;13074;48.298;14.424;2023-12-20T22:17:56;4.90;99.90
22147;DHT22;13074;48.298;14.424;2023-12-20T22:20:30;5.00;99.90
22147;DHT22;13074;48.298;14.424;2023-12-20T22:23:00;5.00;99.90
22147;DHT22;13074;48.298;14.424;2023-12-20T22:25:38;5.00;99.90
22147;DHT22;13074;48.298;14.424;2023-12-20T22:28:15;5.00;99.90
22147;DHT22;13074;48.298;14.424;2023-12-20T22:31:00;5.00;99.90
22147;DHT22;13074;48.298;14.424;2023-12-20T22:33:50;4.70;99.90
22147;DHT22;13074;48.298;14.424;2023-12-20T22:36:20;4.70;99.90
22147;DHT22;13074;48.298;14.424;2023-12-20T22:38:52;4.70;99.90
22147;DHT22;13074;48.298;14.424;2023-12-20T22:41:23;4.70;99.90
22147;DHT22;13074;48.298;14.424;2023-12-20T22:43:52;4.70;99.90
22147;DHT22;13074;48.298;14.424;2023-12-20T22:46:25;4.70;99.90
22147;DHT22;13074;48.298;14.424;2023-12-20T22:49:03;4.80;99.90
22147;DHT22;13074;48.298;14.424;2023-12-20T22:51:37;4.90;99.90
22147;DHT22;13074;48.298;14.424;2023-12-20T22:54:07;4.90;99.90
22147;DHT22;13074;48.298;14.424;2023-12-20T22:56:40;5.00;99.90
22147;DHT22;13074;48.298;14.424;2023-12-20T22:59:10;5.00;99.90
22147;DHT22;13074;48.298;14.424;2023-12-20T23:01:42;5.00;99.90
22147;DHT22;13074;48.298;14.424;2023-12-20T23:04:18;5.00;99.90
22147;DHT22;13074;48.298;14.424;2023-12-20T23:06:49;4.90;99.90
22147;DHT22;13074;48.298;14.424;2023-12-20T23:09:17;4.90;99.90
22147;DHT22;13074;48.298;14.424;2023-12-20T23:11:48;4.90;99.90
22147;DHT22;13074;48.298;14.424;2023-12-20T23:14:19;4.80;99.90
22147;DHT22;13074;48.298;14.424;2023-12-20T23:16:49;4.90;99.90
22147;DHT22;13074;48.298;14.424;2023-12-20T23:19:26;4.90;99.90
22147;DHT22;13074;48.298;14.424;2023-12-20T23:21:55;5.10;99.90
22147;DHT22;13074;48.298;14.424;2023-12-20T23:24:33;5.00;99.90
22147;DHT22;13074;48.298;14.424;2023-12-20T23:27:01;5.00;99.90
22147;DHT22;13074;48.298;14.424;2023-12-20T23:29:31;5.00;99.90
22147;DHT22;13074;48.298;14.424;2023-12-20T23:32:00;5.10;99.90
22147;DHT22;13074;48.298;14.424;2023-12-20T23:34:30;5.10;99.90
22147;DHT22;13074;48.298;14.424;2023-12-20T23:37:03;5.10;99.90
22147;DHT22;13074;48.298;14.424;2023-12-20T23:39:36;5.20;99.90
22147;DHT22;13074;48.298;14.424;2023-12-20T23:42:12;5.20;99.90
22147;DHT22;13074;48.298;14.424;2023-12-20T23:44:56;5.20;99.90
22147;DHT22;13074;48.298;14.424;2023-12-20T23:47:28;5.20;99.90
22147;DHT22;13074;48.298;14.424;2023-12-20T23:50:04;5.30;99.90
22147;DHT22;13074;48.298;14.424;2023-12-20T23:52:37;5.20;99.90
22147;DHT22;13074;48.298;14.424;2023-12-20T23:55:09;5.30;99.90
22147;DHT22;13074;48.298;14.424;2023-12-20T23:57:39;5.20;99.90
